x

Lake Winnipeg Narrows (45145) Wave Buoy

1:00pm - Thu 28th Aug 2014 All times are UTC.

  • Sig Wave height 2.0ft
  • Peak Period 3s
  • Wind
    18mph, 22mph gusts
  • Sea Temp 66°f
  • Air Temp 63°f
  • Sea Pressure 1011.1mb

More Historic Weather Station data

Upgrade to MSW Pro to gain access to the past 30 days of data for over 8000 Wavebouys and Weather Stations around the globe.

Join Pro

Comparision Forecast

View Surf forecast
   
Thu 08/28 1:00pm 2ft 3s 18 22 mph 1011.1mb 66f 63f
12:00pm 2ft 3s 18 20 mph 1011.6mb 66f 62f
11:00am 1.6ft 3s 18 20 mph 1012mb 66f 62f
10:00am 2ft 3s 16 18 mph 1012.3mb 66f 63f
9:00am 2ft 3s 20 25 mph 1012.5mb 66f 64f
8:00am 2ft 3s 18 22 mph 1012.9mb 66f 64f
6:00am 1.6ft 3s 18 22 mph 1013.4mb 66f 65f
5:00am 1.6ft 3s 18 20 mph 1013.9mb 67f 66f
4:00am 1.6ft 3s 18 20 mph 1014.3mb 67f 67f
3:00am 1.3ft 3s 18 20 mph 1014.3mb 67f 67f
2:00am 1.3ft 3s 13 16 mph 1014.6mb 67f 68f
1:00am 1.6ft 3s 13 16 mph 1014.7mb 67f 69f
12:00am 1.6ft 3s 18 20 mph 1015mb 67f 69f
Wed 08/27 11:00pm 1.6ft 3s 18 20 mph 1015.4mb 67f 69f
10:00pm 1.6ft 3s 18 22 mph 1015.4mb 67f 70f
9:00pm 1.6ft 3s 18 20 mph 1016mb 67f 70f
8:00pm 1.6ft 3s 18 20 mph 1016.4mb 67f 69f
7:00pm 1.3ft 3s 18 20 mph 1016.7mb 67f 69f
6:00pm 1.3ft 3s 16 18 mph 1017.1mb 67f 67f
5:00pm 1.3ft 3s 13 16 mph 1017.6mb 66f 64f
4:00pm 1.3ft 3s 13 16 mph 1018mb 66f 63f
3:00pm 1.3ft 3s 16 18 mph 1018.3mb 66f 61f
2:00pm 1.6ft 3s 16 18 mph 1018.4mb 66f 60f
1:00pm 1.3ft 3s 16 18 mph 1018.3mb 65f 58f
12:00pm 1.3ft 3s 16 18 mph 1018.2mb 65f 58f
11:00am 2ft 3s 18 20 mph 1018.5mb 65f 59f
10:00am 2ft 3s 20 22 mph 1018.6mb 65f 59f
8:00am 1.6ft 3s 18 20 mph 1019.1mb 65f 60f
7:00am 1.3ft 3s 18 20 mph 1019mb 65f 60f
6:00am 1.3ft 3s 16 18 mph 1019.1mb 65f 59f
5:00am 1ft 2s 16 18 mph 1019.2mb 65f 60f
4:00am 0.7ft 2s 13
mph
1019.4mb 66f 60f
3:00am 0.3ft 3s 9 11 mph 1019.3mb 66f 60f
2:00am 0.3ft 4s 9 11 mph 1019.3mb 65f 59f
1:00am 0.3ft 3s 7 9 mph 1019.5mb 65f 58f
12:00am 0.7ft 3s 2
mph
1019.7mb 65f 58f
Tue 08/26 11:00pm 0.7ft 3s 2 4 mph 1020.1mb 65f 58f
10:00pm 1ft 3s 4 9 mph 1020.3mb 66f 57f
9:00pm 1ft 3s 7 11 mph 1020.2mb 66f 55f
8:00pm 1ft 4s 7 9 mph 1020.6mb 65f 55f
7:00pm 1.3ft 3s 11 13 mph 1020.8mb 65f 54f
6:00pm 1.3ft 4s 9 13 mph 1020.6mb 65f 55f
5:00pm 1.6ft 4s 9 13 mph 1020.6mb 65f 54f
4:00pm 1.6ft 4s 11 16 mph 1020.5mb 65f 53f
3:00pm 1.6ft 4s 13 18 mph 1020mb 65f 52f
2:00pm 1.6ft 4s 13 18 mph 1019.4mb 65f 52f
1:00pm 1.6ft 4s 16 20 mph 1018.9mb 65f 52f
12:00pm 1.6ft 4s 13 18 mph 1018.1mb 65f 52f
11:00am 1.3ft 3s 13 18 mph 1017.6mb 65f 51f
10:00am 1.3ft 4s 13 16 mph 1017.2mb 65f 51f
9:00am 1.6ft 4s 11 16 mph 1016.8mb 65f 52f
8:00am 1.6ft 4s 13 18 mph 1016.2mb 65f 52f
7:00am 2ft 4s 13 18 mph 1015.7mb 65f 52f
6:00am 2.5ft 4s 16 18 mph 1015.4mb 65f 52f
5:00am 2.5ft 4s 16 20 mph 1014.7mb 65f 52f
4:00am 2.5ft 4s 18 22 mph 1014.1mb 65f 52f
3:00am 2.5ft 4s 18 22 mph 1013.7mb 65f 52f
2:00am 3ft 5s 20 25 mph 1012.5mb 65f 53f
1:00am 3.5ft 4s 20 25 mph 1012.2mb 65f 53f
12:00am 3.5ft 4s 22 27 mph 1011.2mb 65f 53f
Mon 08/25 11:00pm 3.5ft 5s 22 27 mph 1010.4mb 66f 53f
10:00pm 3.5ft 4s 20 25 mph 1009.4mb 66f 52f
9:00pm 3.5ft 4s 22 27 mph 1008.6mb 66f 53f
8:00pm 3ft 4s 22 27 mph 1007.8mb 66f 53f
7:00pm 2.5ft 4s 18 22 mph 1006.9mb 66f 52f
6:00pm 2.5ft 4s 18 22 mph 1005.8mb 66f 52f
5:00pm 2.5ft 4s 16 20 mph 1004.8mb 66f 52f
4:00pm 1.6ft 4s 16 20 mph 1004.1mb 66f 51f
3:00pm 1.3ft 3s 13 18 mph 1003.6mb 66f 51f
2:00pm 1.3ft 3s 13 16 mph 1003.2mb 66f 51f
1:00pm 1.3ft 3s 13 16 mph 1002.8mb 66f 51f
12:00pm 1.3ft 3s 13 18 mph 1003.2mb 66f 50f
11:00am 1.3ft 4s 13 18 mph 1003.3mb 66f 50f
10:00am 1.6ft 3s 16 18 mph 1003.5mb 66f 49f
9:00am 1.6ft 3s 16 20 mph 1003.7mb 66f 49f
8:00am  -   -  16
mph
- - 49f
7:00am 1.6ft 3s 16 20 mph 1004.8mb 66f 49f
6:00am 2ft 4s 18 22 mph 1005.1mb 66f 49f
5:00am 2.5ft 4s 20 25 mph 1005.5mb 66f 49f
4:00am 2.5ft 3s 22 27 mph 1006mb 66f 50f
3:00am 2.5ft 3s 22 27 mph 1005.9mb 67f 51f
2:00am 2.5ft 4s 25 31 mph 1006.1mb 67f 51f
1:00am 2.5ft 4s 22 27 mph 1006.6mb 67f 52f
12:00am 3ft 3s 25 29 mph 1006.5mb 67f 52f
Sun 08/24 11:00pm 3ft 4s 22 31 mph 1006.4mb 67f 52f
10:00pm 3ft 4s 22 29 mph 1006.6mb 66f 52f
9:00pm 3.5ft 4s 22 29 mph 1006.7mb 66f 52f
8:00pm  -   -  25
mph
1006.5mb - 52f
7:00pm 3ft 4s 25 31 mph 1006.4mb 66f 53f
6:00pm 2.5ft 4s 25 31 mph 1007mb 66f 53f
5:00pm 3.5ft 4s 22
mph
1008mb 66f 53f
4:00pm  -   -  29
mph
- - 53f
3:00pm 3ft 4s 29 34 mph 1008.7mb 67f 54f